Latest Coastal Weather Observations for Cooktown

IDQ60701

Issued at 10:25 pm EST Tuesday 2 September 2014 (issued every 10 minutes, with the page automatically refreshed every 10 minutes)

About coastal observations | Map of coastal stations | Coastal observations for QLD | Marine services | Other Formats
Station Details ID: 031209 Name: COOKTOWN AIRPORT Lat: -15.45 Lon: 145.19 Height: 4.8 m
Data from the previous 72 hours. | See also: Recent months at Cooktown
Date/Time
EST
Temp

°C
Wind Pressure Rain
since 9am
mm
Weather Cloud Vis
km
Sea
Height
m
Swell
Dir
 
Speed
knots
Gust
knots
hPa Trend Height
m
Period
s
Dir
02/10:00pm 16.6 WNW 4 5 1016.2 - 0.0 - - 10 - - - -
02/09:30pm 16.4 CALM 0 3 1016.2 - 0.0 - - 10 - - - -
02/09:00pm 18.3 SE 3 5 1016.0 - 0.0 - - 10 - - - -
02/08:30pm 18.9 SE 4 5 1015.7 - 0.0 - - 10 - - - -
02/08:00pm 20.4 SE 5 8 1015.5 - 0.0 - - 10 - - - -
02/07:30pm 20.7 ESE 7 11 1015.2 - 0.0 - - 10 - - - -
02/07:00pm 20.3 ESE 7 9 1014.8 - 0.0 - - 10 - - - -
02/06:30pm 21.2 ESE 8 12 1014.2 - 0.0 - - 10 - - - -
02/06:00pm 21.6 ESE 8 12 1013.9 - 0.0 - - 10 - - - -
02/05:30pm 22.8 E 10 14 1014.0 - 0.0 - - 10 - - - -
02/05:00pm 23.5 E 13 18 1014.0 - 0.0 - - 10 - - - -
02/04:30pm 24.0 E 13 17 1013.8 - 0.0 - - 10 - - - -
02/04:00pm 24.4 E 15 18 1013.8 - 0.0 - - 10 - - - -
02/03:30pm 24.9 E 13 18 1014.0 - 0.0 - - 10 - - - -
02/03:00pm 25.4 E 13 19 1014.1 R 0.0 Fine Mostly clear 40 - - - -
02/02:30pm 25.7 E 14 19 1014.4 - 0.0 - - 10 - - - -
02/02:00pm 25.2 E 16 20 1014.7 - 0.0 - - 10 - - - -
02/01:30pm 25.3 E 16 21 1015.2 - 0.0 - - 10 - - - -
02/01:00pm 25.6 E 17 22 1015.5 - 0.0 - - 10 - - - -
02/12:30pm 25.8 E 15 19 1015.8 - 0.0 - - 10 - - - -
02/12:00pm 26.4 E 13 16 1016.2 - 0.0 - - 10 - - - -
02/11:30am 25.6 E 13 18 1016.7 - 0.0 - - 10 - - - -
02/11:00am 26.1 E 14 18 1017.1 - 0.0 - - 10 - - - -
02/10:30am 25.2 ESE 11 15 1017.4 - 0.0 - - 10 - - - -
02/10:00am 25.0 ESE 12 18 1017.7 - 0.0 - - 10 - - - -
02/09:30am 24.6 E 12 18 1017.7 - 0.0 - - 10 - - - -
02/09:00am 23.2 SSE 5 8 1017.6 S 0.0 Fine Mostly clear 35 - - - -
02/08:30am 21.9 S 5 6 1017.6 - 0.0 - - 10 - - - -
02/08:00am 19.4 W 3 4 1017.4 - 0.0 - - 10 - - - -
02/07:30am 17.0 WNW 2 4 1017.2 - 0.0 - - 10 - - - -
02/07:00am 14.4 WNW 5 6 1016.6 - 0.0 - - 10 - - - -
02/06:30am 14.4 WNW 4 5 1016.4 - 0.0 - - 10 - - - -
02/06:00am 14.3 CALM 0 0 1016.3 - 0.0 - - 10 - - - -
02/05:30am 15.3 NW 3 4 1016.2 - 0.0 - - 10 - - - -
02/05:00am 16.1 WNW 3 5 1015.8 - 0.0 - - 10 - - - -
02/04:30am 18.2 S 4 5 1016.0 - 0.0 - - 10 - - - -
02/04:00am 19.5 SSE 3 5 1015.9 - 0.0 - - 10 - - - -
02/03:30am 20.4 ESE 6 10 1016.0 - 0.0 - - 10 - - - -
02/03:00am 20.9 SE 7 12 1016.0 - 0.0 - - 10 - - - -
02/02:30am 21.0 ESE 7 11 1016.0 - 0.0 - - 10 - - - -
02/02:00am 20.8 ESE 7 13 1016.1 - 0.0 - - 10 - - - -
02/01:30am 21.2 SE 7 11 1016.2 - 0.0 - - 10 - - - -
02/01:00am 21.3 SE 7 13 1016.5 - 0.0 - - 10 - - - -
02/12:30am 21.6 ESE 8 13 1016.7 - 0.0 - - 10 - - - -
02/12:00am 21.8 ESE 10 15 1016.8 - 0.0 - - 10 - - - -
 
Date/Time
EST
Temp

°C
Wind Pressure Rain
since 9am
mm
Weather Cloud Vis
km
Sea
Height
m
Swell
Dir
 
Speed
knots
Gust
knots
hPa Trend Height
m
Period
s
Dir
01/11:30pm 22.1 ESE 11 15 1017.2 - 0.0 - - 10 - - - -
01/11:00pm 21.7 ESE 9 13 1017.3 - 0.0 - - 10 - - - -
01/10:30pm 22.1 ESE 11 15 1017.3 - 0.0 - - 10 - - - -
01/10:00pm 22.2 ESE 11 18 1017.4 - 0.0 - - 10 - - - -
01/09:30pm 22.3 ESE 12 18 1017.4 - 0.0 - - 10 - - - -
01/09:00pm 22.2 ESE 10 17 1016.9 - 0.0 - - 10 - - - -
01/08:30pm 21.9 ESE 10 18 1016.8 - 0.0 - - 10 - - - -
01/08:00pm 22.2 ESE 12 19 1016.7 - 0.0 - Partly cloudy 10 - - - -
01/07:30pm 22.2 ESE 11 16 1016.2 - 0.0 - Partly cloudy 10 - - - -
01/07:00pm 22.3 ESE 10 15 1015.8 - 0.0 - Partly cloudy 10 - - - -
01/06:30pm 22.3 ESE 11 17 1015.3 - 0.0 - Partly cloudy 10 - - - -
01/06:00pm 22.5 ESE 11 17 1015.1 - 0.0 - Cloudy 10 - - - -
01/05:30pm 23.1 ESE 11 16 1014.8 - 0.0 - Partly cloudy 10 - - - -
01/05:00pm 23.7 ESE 14 22 1014.2 - 0.0 - Partly cloudy 10 - - - -
01/04:30pm 24.4 ESE 13 19 1014.0 - 0.0 - Partly cloudy 10 - - - -
01/04:00pm 24.4 ESE 13 19 1013.9 - 0.0 - - 10 - - - -
01/03:30pm 24.6 ESE 16 22 1014.0 - 0.0 - - 10 - - - -
01/03:00pm 25.1 ESE 15 23 1013.9 F 0.0 Fine Mostly clear 40 - - - -
01/02:30pm 25.0 ESE 16 22 1014.3 - 0.0 - - 10 - - - -
01/02:00pm 25.5 ESE 16 22 1014.6 - 0.0 - - 10 - - - -
01/01:30pm 25.8 ESE 16 22 1015.0 - 0.0 - - 10 - - - -
01/01:00pm 25.8 ESE 14 21 1015.3 - 0.0 - - 10 - - - -
01/12:30pm 25.7 ESE 15 19 1015.8 - 0.0 - - 10 - - - -
01/12:00pm 26.0 ESE 14 21 1016.2 - 0.0 - - 10 - - - -
01/11:30am 26.0 ESE 15 22 1016.7 - 0.0 - - 10 - - - -
01/11:00am 25.7 ESE 13 22 1017.2 - 0.0 - - 10 - - - -
01/10:30am 25.2 SE 11 19 1017.5 - 0.0 - - 10 - - - -
01/10:00am 24.6 ESE 13 19 1017.5 - 0.0 - - 10 - - - -
01/09:30am 25.0 ESE 10 18 1017.4 - 0.0 - Partly cloudy 10 - - - -
01/09:00am 23.8 SE 10 17 1016.9 R 0.0 Fine Mostly clear 35 - - - -
01/08:30am 23.4 ESE 10 17 1016.7 - 0.0 - - 10 - - - -
01/08:00am 22.8 SE 7 15 1016.3 - 0.0 - - 10 - - - -
01/07:30am 21.8 SSE 5 8 1016.3 - 0.0 - - 10 - - - -
01/07:00am 20.4 SSE 4 6 1016.0 - 0.0 - - 10 - - - -
01/06:30am 20.0 SE 4 6 1015.7 - 0.0 - - 10 - - - -
01/06:00am 20.3 SE 5 8 1015.3 - 0.0 - - 10 - - - -
01/05:30am 20.5 SE 6 11 1014.9 - 0.0 - - 10 - - - -
01/05:00am 20.6 SE 7 11 1014.8 - 0.0 - - 10 - - - -
01/04:30am 20.6 SE 6 11 1014.8 - 0.0 - - 10 - - - -
01/04:00am 20.6 SE 7 10 1014.7 - 0.0 - - 10 - - - -
01/03:30am 20.5 SE 6 9 1014.7 - 0.0 - - 10 - - - -
01/03:00am 20.6 SE 6 11 1014.6 - 0.0 - - 10 - - - -
01/02:30am 21.0 SE 6 11 1014.9 - 0.0 - - 10 - - - -
01/02:00am 20.9 SE 6 10 1015.0 - 0.0 - - 10 - - - -
01/01:30am 21.5 SE 8 13 1015.2 - 0.0 - - 10 - - - -
01/01:00am 21.9 SE 10 16 1015.3 - 0.0 - Partly cloudy 10 - - - -
01/12:30am 21.7 ESE 10 17 1015.6 - 0.0 - - 10 - - - -
01/12:00am 21.8 ESE 10 16 1016.0 - 0.0 - - 10 - - - -
 
Date/Time
EST
Temp

°C
Wind Pressure Rain
since 9am
mm
Weather Cloud Vis
km
Sea
Height
m
Swell
Dir
 
Speed
knots
Gust
knots
hPa Trend Height
m
Period
s
Dir
31/11:30pm 21.9 ESE 10 15 1016.1 - 0.0 - - 10 - - - -
31/11:00pm 22.0 ESE 10 15 1016.1 - 0.0 - - 10 - - - -
31/10:30pm 21.9 ESE 11 19 1016.1 - 0.0 - - 10 - - - -
31/10:00pm 22.1 ESE 12 19 1016.0 - 0.0 - - 10 - - - -
31/09:30pm 22.0 ESE 11 17 1016.0 - 0.0 - Partly cloudy 10 - - - -
31/09:00pm 22.1 ESE 11 19 1015.8 - 0.0 - Cloudy 10 - - - -
31/08:30pm 22.2 ESE 10 18 1015.6 - 0.0 - - 10 - - - -
31/08:00pm 22.0 ESE 9 16 1015.3 - 0.0 - - 10 - - - -
31/07:30pm 22.1 ESE 9 13 1014.9 - 0.0 - - 10 - - - -
31/07:00pm 22.2 ESE 10 18 1014.5 - 0.0 - - 10 - - - -
31/06:30pm 21.9 ESE 10 16 1014.1 - 0.0 - - 10 - - - -
31/06:00pm 22.5 SE 11 17 1013.7 - 0.0 - - 10 - - - -
31/05:30pm 22.9 ESE 13 19 1013.4 - 0.0 - - 10 - - - -
31/05:00pm 23.3 ESE 15 24 1013.2 - 0.0 - - 10 - - - -
31/04:30pm 24.0 ESE 15 22 1013.0 - 0.0 - - 10 - - - -
31/04:00pm 23.8 SE 14 23 1012.9 - 0.0 - - 10 - - - -
31/03:30pm 24.5 SE 15 22 1012.8 - 0.0 - - 10 - - - -
31/03:00pm 24.8 ESE 17 26 1012.9 - 0.0 - - 10 - - - -
31/02:31pm 25.4 ESE 15 25 1013.2 - 0.0 - - 10 - - - -
31/02:30pm 25.5 ESE 16 25 1013.2 - 0.0 - - 10 - - - -
31/02:07pm 25.4 ESE 17 27 1013.4 - 0.0 - - 10 - - - -
31/02:00pm 24.8 ESE 18 24 1013.5 - 0.0 - - 10 - - - -
31/01:30pm 25.4 E 18 24 1013.8 - 0.0 - - 10 - - - -
31/01:00pm 26.1 ESE 14 24 1014.1 - 0.0 - - 10 - - - -
31/12:30pm 25.6 ESE 15 22 1014.5 - 0.0 - - 10 - - - -
31/12:00pm 25.2 ESE 15 22 1015.0 - 0.0 - - 10 - - - -
31/11:30am 25.1 ESE 15 20 1015.4 - 0.0 - - 10 - - - -
31/11:00am 25.2 SE 13 21 1016.0 - 0.0 - - 10 - - - -
31/10:30am 25.0 SE 12 19 1016.5 - 0.0 - - 10 - - - -
31/10:00am 24.1 SE 11 17 1016.7 - 0.0 - - 10 - - - -
31/09:30am 24.5 ESE 11 18 1016.8 - 0.0 - - 10 - - - -
31/09:00am 23.8 ESE 11 15 1016.7 R 0.2 Fine Mostly clear 35 - - - -
31/08:30am 22.7 W 2 4 1016.5 - 0.2 - - 10 - - - -
31/08:00am 21.3 W 3 5 1016.2 - 0.2 - - 10 - - - -
31/07:30am 19.4 W 3 4 1016.1 - 0.2 - - 10 - - - -
31/07:00am 17.7 WNW 4 5 1015.8 - 0.2 - - 10 - - - -
31/06:30am 19.4 S 3 5 1015.5 - 0.2 - - 10 - - - -
31/06:00am 20.4 SSE 5 7 1015.0 - 0.2 - - 10 - - - -
31/05:30am 20.5 SE 4 7 1014.8 - 0.2 - Partly cloudy 10 - - - -
31/05:00am 20.8 SSE 5 6 1014.6 - 0.2 - Partly cloudy 10 - - - -
31/04:30am 21.3 SE 5 9 1014.4 - 0.2 - Partly cloudy 10 - - - -
31/04:00am 21.0 SE 5 8 1014.2 - 0.2 - Partly cloudy 10 - - - -
31/03:30am 21.1 ESE 6 9 1014.2 - 0.2 - - 10 - - - -
31/03:00am 20.9 ESE 6 12 1014.3 - 0.2 - - 10 - - - -
31/02:30am 21.1 SE 6 13 1014.5 - 0.2 - - 10 - - - -
31/02:00am 21.3 ESE 7 12 1014.7 - 0.2 - - 10 - - - -
31/01:30am 21.6 ESE 8 14 1015.2 - 0.2 - - 10 - - - -
31/01:00am 21.7 ESE 8 13 1015.5 - 0.2 - - 10 - - - -
31/12:30am 21.7 ESE 9 15 1016.0 - 0.2 - - 10 - - - -
31/12:00am 22.0 ESE 10 15 1016.3 - 0.2 - - 10 - - - -
 
Date/Time
EST
Temp

°C
Wind Pressure Rain
since 9am
mm
Weather Cloud Vis
km
Sea
Height
m
Swell
Dir
 
Speed
knots
Gust
knots
hPa Trend Height
m
Period
s
Dir
30/11:30pm 21.3 ESE 8 13 1016.5 - 0.2 - - 10 - - - -
30/11:00pm 21.8 ESE 8 13 1016.6 - 0.2 - - 10 - - - -
30/10:30pm 21.9 ESE 9 14 1016.6 - 0.2 - Partly cloudy 10 - - - -

Other Formats:

Comma delimited format used in spreadsheet applications
http://www.bom.gov.au/fwo/IDQ60701/IDQ60701.95283.axf

JavaScript Object Notation format (JSON) in row-major order
http://www.bom.gov.au/fwo/IDQ60701/IDQ60701.95283.json